createdAt,value
2018-06-10T00:00:25.288Z,93.28
2018-06-10T00:01:25.299Z,93.57
2018-06-10T00:02:25.306Z,93.33
2018-06-10T00:03:25.315Z,92.80
2018-06-10T00:04:25.322Z,92.13
2018-06-10T00:05:25.331Z,92.90
2018-06-10T00:06:25.337Z,92.90
2018-06-10T00:07:25.344Z,93.09
2018-06-10T00:08:25.357Z,92.90
2018-06-10T00:09:25.359Z,92.90
2018-06-10T00:10:25.367Z,92.71
2018-06-10T00:11:25.376Z,92.85
2018-06-10T00:12:25.385Z,92.80
2018-06-10T00:13:25.389Z,92.37
2018-06-10T00:14:25.395Z,93.52
2018-06-10T00:15:25.410Z,93.72
2018-06-10T00:16:25.409Z,92.94
2018-06-10T00:17:25.422Z,92.76
2018-06-10T00:18:25.426Z,92.80
2018-06-10T00:19:25.434Z,92.99
2018-06-10T00:20:25.442Z,92.61
2018-06-10T00:21:25.448Z,93.43
2018-06-10T00:22:25.454Z,94.01
2018-06-10T00:23:25.462Z,93.14
2018-06-10T00:24:25.469Z,93.04
2018-06-10T00:25:25.484Z,92.99
2018-06-10T00:26:25.484Z,92.32
2018-06-10T00:27:25.495Z,92.66
2018-06-10T00:28:25.501Z,92.76
2018-06-10T00:29:25.507Z,93.33
2018-06-10T00:30:25.520Z,92.99
2018-06-10T00:31:25.523Z,91.83
2018-06-10T00:32:25.536Z,92.27
2018-06-10T00:33:25.541Z,92.76
2018-06-10T00:34:25.544Z,92.37
2018-06-10T00:35:25.562Z,92.85
2018-06-10T00:36:25.556Z,92.76
2018-06-10T00:37:25.565Z,92.18
2018-06-10T00:38:25.576Z,93.33
2018-06-10T00:39:25.583Z,93.62
2018-06-10T00:40:25.590Z,92.76
2018-06-10T00:41:25.601Z,92.76
2018-06-10T00:42:25.602Z,93.19
2018-06-10T00:43:25.611Z,92.37
2018-06-10T00:44:25.619Z,92.27
2018-06-10T00:45:25.628Z,91.99
2018-06-10T00:46:25.635Z,92.27
2018-06-10T00:47:25.640Z,92.85
2018-06-10T00:48:25.648Z,92.66
2018-06-10T00:49:25.655Z,92.94
2018-06-10T00:50:25.663Z,92.76
2018-06-10T00:51:25.668Z,93.62
2018-06-10T00:52:25.674Z,94.25
2018-06-10T00:53:25.687Z,93.72
2018-06-10T00:54:25.691Z,92.37
2018-06-10T00:55:25.704Z,92.76
2018-06-10T00:56:25.706Z,93.24
2018-06-10T00:57:25.714Z,92.18
2018-06-10T00:58:25.720Z,92.27
2018-06-10T00:59:25.734Z,93.04
2018-06-10T01:00:25.756Z,92.27
2018-06-10T01:01:25.741Z,92.08
2018-06-10T01:02:25.750Z,92.27
2018-06-10T01:03:25.757Z,92.66
2018-06-10T01:04:25.764Z,91.99
2018-06-10T01:05:25.769Z,91.89
2018-06-10T01:06:25.779Z,92.27
2018-06-10T01:07:25.786Z,92.18
2018-06-10T01:08:25.793Z,92.66
2018-06-10T01:09:25.801Z,93.04
2018-06-10T01:10:25.809Z,92.94
2018-06-10T01:11:25.811Z,92.22
2018-06-10T01:12:25.820Z,92.03
2018-06-10T01:13:25.828Z,92.32
2018-06-10T01:14:25.842Z,92.66
2018-06-10T01:15:25.844Z,92.76
2018-06-10T01:16:25.848Z,92.85
2018-06-10T01:17:25.856Z,93.33
2018-06-10T01:18:25.868Z,92.56
2018-06-10T01:19:25.876Z,92.66
2018-06-10T01:20:25.877Z,92.94
2018-06-10T01:21:25.888Z,92.32
2018-06-10T01:22:25.900Z,91.83
2018-06-10T01:23:25.902Z,92.32
2018-06-10T01:24:25.911Z,92.51
2018-06-10T01:25:25.919Z,92.13
2018-06-10T01:26:25.925Z,92.66
2018-06-10T01:27:25.930Z,92.22
2018-06-10T01:28:25.939Z,91.79
2018-06-10T01:29:25.944Z,91.99
2018-06-10T01:30:25.954Z,92.08
2018-06-10T01:31:25.964Z,91.93
2018-06-10T01:32:25.968Z,91.93
2018-06-10T01:33:25.975Z,92.27
2018-06-10T01:34:25.981Z,93.14
2018-06-10T01:35:25.989Z,92.27
2018-06-10T01:36:25.998Z,92.66
2018-06-10T01:37:26.004Z,93.24
2018-06-10T01:38:26.012Z,92.85
2018-06-10T01:39:26.017Z,92.76
2018-06-10T01:40:26.026Z,93.72
2018-06-10T01:41:26.037Z,92.85
2018-06-10T01:42:26.044Z,92.27
2018-06-10T01:43:26.048Z,93.72
2018-06-10T01:44:26.059Z,93.24
2018-06-10T01:45:26.061Z,92.08
2018-06-10T01:46:26.067Z,92.66
2018-06-10T01:47:26.078Z,92.66
2018-06-10T01:48:26.081Z,93.04
2018-06-10T01:49:26.091Z,93.57
2018-06-10T01:50:26.099Z,93.62
2018-06-10T01:51:26.105Z,92.76
2018-06-10T01:52:26.110Z,92.18
2018-06-10T01:53:26.118Z,91.89
2018-06-10T01:54:26.128Z,91.83
2018-06-10T01:55:26.143Z,92.08
2018-06-10T01:56:26.142Z,92.08
2018-06-10T01:57:26.155Z,91.41
2018-06-10T01:58:26.155Z,92.18
2018-06-10T01:59:26.163Z,93.24
2018-06-10T02:00:26.170Z,92.80
2018-06-10T02:01:26.177Z,92.90
2018-06-10T02:02:26.185Z,93.48
2018-06-10T02:03:26.189Z,93.00
2018-06-10T02:04:26.196Z,92.61
2018-06-10T02:05:26.208Z,92.61
2018-06-10T02:06:26.212Z,91.84
2018-06-10T02:07:26.221Z,92.18
2018-06-10T02:08:26.225Z,92.08
2018-06-10T02:09:26.235Z,91.99
2018-06-10T02:10:26.244Z,92.03
2018-06-10T02:11:26.248Z,92.71
2018-06-10T02:12:26.252Z,93.09
2018-06-10T02:13:26.261Z,92.32
2018-06-10T02:14:26.275Z,92.18
2018-06-10T02:15:26.276Z,91.99
2018-06-10T02:16:26.294Z,92.08
2018-06-10T02:17:26.288Z,92.13
2018-06-10T02:18:26.298Z,91.94
2018-06-10T02:19:26.318Z,92.71
2018-06-10T02:20:26.317Z,92.71
2018-06-10T02:21:26.318Z,91.94
2018-06-10T02:22:26.326Z,92.13
2018-06-10T02:23:26.336Z,92.13
2018-06-10T02:24:26.338Z,91.46
2018-06-10T02:25:26.346Z,91.50
2018-06-10T02:26:26.353Z,91.12
2018-06-10T02:27:26.361Z,91.21
2018-06-10T02:28:26.375Z,91.02
2018-06-10T02:29:26.378Z,90.92
2018-06-10T02:30:26.386Z,90.73
2018-06-10T02:31:26.394Z,91.17
2018-06-10T02:32:26.396Z,90.88
2018-06-10T02:33:26.403Z,91.65
2018-06-10T02:34:26.422Z,91.94
2018-06-10T02:35:26.421Z,91.94
2018-06-10T02:36:26.422Z,91.99
2018-06-10T02:37:26.437Z,91.94
2018-06-10T02:38:26.440Z,92.13
2018-06-10T02:39:26.451Z,91.27
2018-06-10T02:40:26.458Z,90.54
2018-06-10T02:41:26.461Z,91.02
2018-06-10T02:42:26.476Z,90.83
2018-06-10T02:43:26.477Z,90.69
2018-06-10T02:44:26.481Z,91.36
2018-06-10T02:45:26.489Z,91.07
2018-06-10T02:46:26.500Z,92.13
2018-06-10T02:47:26.501Z,92.52
2018-06-10T02:48:26.518Z,92.22
2018-06-10T02:49:26.516Z,92.90
2018-06-10T02:50:26.522Z,92.03
2018-06-10T02:51:26.530Z,92.22
2018-06-10T02:52:26.536Z,92.80
2018-06-10T02:53:26.546Z,92.80
2018-06-10T02:54:26.551Z,92.71
2018-06-10T02:55:26.574Z,92.76
2018-06-10T02:56:26.573Z,93.05
2018-06-10T02:57:26.576Z,92.71
2018-06-10T02:58:26.579Z,92.61
2018-06-10T02:59:26.588Z,92.03
2018-06-10T03:00:26.593Z,92.03
2018-06-10T03:01:26.604Z,92.52
2018-06-10T03:02:26.605Z,92.13
2018-06-10T03:03:26.617Z,92.03
2018-06-10T03:04:26.619Z,91.07
2018-06-10T03:05:26.630Z,90.78
2018-06-10T03:06:26.633Z,91.27
2018-06-10T03:07:26.642Z,91.36
2018-06-10T03:08:26.659Z,92.03
2018-06-10T03:09:26.656Z,91.46
2018-06-10T03:10:26.671Z,90.97
2018-06-10T03:11:26.668Z,91.27
2018-06-10T03:12:26.675Z,92.52
2018-06-10T03:13:26.684Z,91.75
2018-06-10T03:14:26.688Z,92.03
2018-06-10T03:15:26.696Z,92.13
2018-06-10T03:16:26.706Z,92.18
2018-06-10T03:17:26.711Z,92.08
2018-06-10T03:18:26.719Z,91.80
2018-06-10T03:19:26.735Z,92.08
2018-06-10T03:20:26.730Z,91.89
2018-06-10T03:21:26.747Z,92.47
2018-06-10T03:22:26.743Z,92.66
2018-06-10T03:23:26.755Z,91.51
2018-06-10T03:24:26.761Z,91.36
2018-06-10T03:25:26.772Z,90.69
2018-06-10T03:26:26.772Z,90.59
2018-06-10T03:27:26.780Z,92.38
2018-06-10T03:28:26.786Z,91.89
2018-06-10T03:29:26.793Z,91.70
2018-06-10T03:30:26.802Z,92.28
2018-06-10T03:31:26.804Z,91.89
2018-06-10T03:32:26.812Z,91.13
2018-06-10T03:33:26.819Z,91.17
2018-06-10T03:34:26.826Z,90.97
2018-06-10T03:35:26.841Z,91.89
2018-06-10T03:36:26.841Z,91.99
2018-06-10T03:37:26.849Z,91.46
2018-06-10T03:38:26.858Z,90.97
2018-06-10T03:39:26.861Z,90.50
2018-06-10T03:40:26.869Z,90.40
2018-06-10T03:41:26.874Z,90.69
2018-06-10T03:42:26.884Z,90.93
2018-06-10T03:43:26.893Z,90.73
2018-06-10T03:44:26.899Z,90.50
2018-06-10T03:45:26.901Z,90.40
2018-06-10T03:46:26.909Z,90.97
2018-06-10T03:47:26.919Z,90.59
2018-06-10T03:48:26.920Z,90.40
2018-06-10T03:49:26.935Z,91.22
2018-06-10T03:50:26.937Z,91.31
2018-06-10T03:51:26.943Z,91.41
2018-06-10T03:52:26.949Z,91.31
2018-06-10T03:53:26.954Z,91.03
2018-06-10T03:54:26.972Z,91.22
2018-06-10T03:55:26.969Z,90.78
2018-06-10T03:56:26.983Z,90.93
2018-06-10T03:57:26.981Z,90.93
2018-06-10T03:58:26.993Z,91.31
2018-06-10T03:59:26.995Z,92.08
2018-06-10T04:00:27.000Z,91.60
2018-06-10T04:01:27.010Z,91.89
2018-06-10T04:02:27.020Z,91.89
2018-06-10T04:03:27.024Z,91.31
2018-06-10T04:04:27.031Z,91.36
2018-06-10T04:05:27.037Z,91.31
2018-06-10T04:06:27.043Z,91.70
2018-06-10T04:07:27.052Z,92.38
2018-06-10T04:08:27.057Z,91.99
2018-06-10T04:09:27.065Z,92.18
2018-06-10T04:10:27.071Z,91.99
2018-06-10T04:11:27.091Z,91.99
2018-06-10T04:12:27.088Z,91.89
2018-06-10T04:13:27.091Z,92.03
2018-06-10T04:14:27.099Z,91.75
2018-06-10T04:15:27.110Z,92.71
2018-06-10T04:16:27.109Z,92.08
2018-06-10T04:17:27.121Z,92.28
2018-06-10T04:18:27.129Z,92.66
2018-06-10T04:19:27.132Z,92.47
2018-06-10T04:20:27.137Z,92.76
2018-06-10T04:21:27.146Z,93.43
2018-06-10T04:22:27.149Z,92.95
2018-06-10T04:23:27.160Z,92.95
2018-06-10T04:24:27.172Z,93.05
2018-06-10T04:25:27.174Z,93.15
2018-06-10T04:26:27.179Z,92.85
2018-06-10T04:27:27.185Z,92.80
2018-06-10T04:28:27.195Z,91.75
2018-06-10T04:29:27.200Z,91.94
2018-06-10T04:30:27.204Z,92.22
2018-06-10T04:31:27.215Z,91.94
2018-06-10T04:32:27.219Z,92.03
2018-06-10T04:33:27.226Z,92.13
2018-06-10T04:34:27.237Z,92.03
2018-06-10T04:35:27.250Z,93.09
2018-06-10T04:36:27.249Z,92.71
2018-06-10T04:37:27.252Z,93.00
2018-06-10T04:38:27.263Z,92.71
2018-06-10T04:39:27.271Z,92.22
2018-06-10T04:40:27.276Z,93.09
2018-06-10T04:41:27.281Z,92.80
2018-06-10T04:42:27.287Z,93.00
2018-06-10T04:43:27.299Z,92.27
2018-06-10T04:44:27.308Z,92.56
2018-06-10T04:45:27.319Z,91.99
2018-06-10T04:46:27.316Z,92.22
2018-06-10T04:47:27.329Z,92.71
2018-06-10T04:48:27.332Z,93.00
2018-06-10T04:49:27.338Z,92.61
2018-06-10T04:50:27.344Z,93.00
2018-06-10T04:51:27.356Z,93.57
2018-06-10T04:52:27.354Z,93.29
2018-06-10T04:53:27.367Z,93.57
2018-06-10T04:54:27.371Z,93.57
2018-06-10T04:55:27.381Z,93.38
2018-06-10T04:56:27.392Z,94.15
2018-06-10T04:57:27.392Z,94.06
2018-06-10T04:58:27.405Z,93.87
2018-06-10T04:59:27.406Z,93.91
2018-06-10T05:00:27.413Z,93.43
2018-06-10T05:01:27.422Z,93.72
2018-06-10T05:02:27.427Z,93.72
2018-06-10T05:03:27.435Z,93.24
2018-06-10T05:04:27.445Z,93.43
2018-06-10T05:05:27.448Z,93.72
2018-06-10T05:06:27.462Z,92.76
2018-06-10T05:07:27.463Z,93.24
2018-06-10T05:08:27.468Z,93.43
2018-06-10T05:09:27.476Z,93.62
2018-06-10T05:10:27.584Z,93.62
2018-06-10T05:11:27.501Z,93.24
2018-06-10T05:12:27.500Z,92.76
2018-06-10T05:13:27.502Z,93.33
2018-06-10T05:14:27.514Z,94.01
2018-06-10T05:15:27.519Z,93.62
2018-06-10T05:16:27.526Z,93.28
2018-06-10T05:17:27.531Z,93.66
2018-06-10T05:18:27.540Z,92.94
2018-06-10T05:19:27.552Z,92.41
2018-06-10T05:20:27.554Z,92.71
2018-06-10T05:21:27.561Z,92.71
2018-06-10T05:22:27.568Z,92.99
2018-06-10T05:23:27.578Z,92.90
2018-06-10T05:24:27.583Z,92.99
2018-06-10T05:25:27.594Z,93.33
2018-06-10T05:26:27.599Z,93.09
2018-06-10T05:27:27.611Z,92.61
2018-06-10T05:28:27.614Z,92.90
2018-06-10T05:29:27.617Z,92.71
2018-06-10T05:30:27.633Z,92.80
2018-06-10T05:31:27.642Z,92.32
2018-06-10T05:32:27.645Z,91.83
2018-06-10T05:33:27.649Z,92.03
2018-06-10T05:34:27.662Z,91.74
2018-06-10T05:35:27.666Z,91.74
2018-06-10T05:36:27.671Z,91.83
2018-06-10T05:37:27.681Z,91.55
2018-06-10T05:38:27.688Z,91.83
2018-06-10T05:39:27.702Z,91.83
2018-06-10T05:40:27.697Z,92.08
2018-06-10T05:41:27.711Z,90.82
2018-06-10T05:42:27.714Z,89.95
2018-06-10T05:43:27.727Z,90.15
2018-06-10T05:44:27.738Z,90.92
2018-06-10T05:45:27.738Z,91.60
2018-06-10T05:46:27.744Z,91.40
2018-06-10T05:47:27.760Z,91.11
2018-06-10T05:48:27.764Z,91.88
2018-06-10T05:49:27.774Z,91.40
2018-06-10T05:50:27.775Z,91.11
2018-06-10T05:51:27.785Z,91.60
2018-06-10T05:52:27.790Z,91.02
2018-06-10T05:53:27.804Z,91.50
2018-06-10T05:54:27.808Z,90.92
2018-06-10T05:55:27.813Z,91.11
2018-06-10T05:56:27.820Z,90.24
2018-06-10T05:57:27.828Z,89.28
2018-06-10T05:58:27.839Z,89.61
2018-06-10T05:59:27.849Z,90.48
2018-06-10T06:00:27.853Z,90.58
2018-06-10T06:01:27.859Z,89.51
2018-06-10T06:02:27.875Z,89.57
2018-06-10T06:03:27.875Z,88.84
2018-06-10T06:04:27.881Z,87.54
2018-06-10T06:05:27.894Z,87.74
2018-06-10T06:06:27.911Z,88.17
2018-06-10T06:07:27.906Z,88.55
2018-06-10T06:08:27.919Z,88.26
2018-06-10T06:09:27.920Z,87.97
2018-06-10T06:10:27.930Z,88.84
2018-06-10T06:11:27.948Z,88.26
2018-06-10T06:12:27.945Z,88.84
2018-06-10T06:13:28.091Z,88.84
2018-06-10T06:14:27.960Z,89.32
2018-06-10T06:15:27.973Z,89.42
2018-06-10T06:16:27.974Z,89.32
2018-06-10T06:17:27.986Z,89.13
2018-06-10T06:18:27.994Z,89.27
2018-06-10T06:19:28.001Z,89.27
2018-06-10T06:20:28.010Z,88.79
2018-06-10T06:21:28.017Z,89.13
2018-06-10T06:22:28.030Z,90.29
2018-06-10T06:23:28.037Z,89.65
2018-06-10T06:24:28.039Z,89.65
2018-06-10T06:25:28.054Z,90.05
2018-06-10T06:26:28.056Z,89.27
2018-06-10T06:27:28.119Z,89.47
2018-06-10T06:28:28.072Z,88.59
2018-06-10T06:29:28.078Z,88.50
2018-06-10T06:30:28.086Z,87.82
2018-06-10T06:31:28.097Z,86.47
2018-06-10T06:32:28.105Z,86.08
2018-06-10T06:33:28.113Z,85.22
2018-06-10T06:34:28.119Z,86.18
2018-06-10T06:35:28.137Z,87.73
2018-06-10T06:36:28.135Z,86.38
2018-06-10T06:37:28.145Z,86.28
2018-06-10T06:38:28.152Z,85.64
2018-06-10T06:39:28.211Z,86.90
2018-06-10T06:40:28.174Z,86.42
2018-06-10T06:41:28.177Z,84.97
2018-06-10T06:42:28.188Z,85.06
2018-06-10T06:43:28.193Z,85.45
2018-06-10T06:44:28.199Z,85.45
2018-06-10T06:45:28.209Z,86.32
2018-06-10T06:46:28.217Z,84.97
2018-06-10T06:47:28.225Z,83.72
2018-06-10T06:48:28.235Z,82.65
2018-06-10T06:49:28.252Z,82.65
2018-06-10T06:50:28.252Z,83.52
2018-06-10T06:51:28.261Z,83.52
2018-06-10T06:52:28.316Z,83.91
2018-06-10T06:53:28.283Z,84.68
2018-06-10T06:54:28.298Z,84.88
2018-06-10T06:55:28.293Z,84.10
2018-06-10T06:56:28.299Z,83.85
2018-06-10T06:57:28.311Z,85.30
2018-06-10T06:58:28.318Z,84.91
2018-06-10T06:59:28.327Z,85.40
2018-06-10T07:00:28.342Z,85.01
2018-06-10T07:01:28.350Z,85.84
2018-06-10T07:02:28.353Z,86.71
2018-06-10T07:03:28.359Z,86.42
2018-06-10T07:04:28.368Z,85.94
2018-06-10T07:05:28.383Z,85.98
2018-06-10T07:06:28.393Z,85.88
2018-06-10T07:07:28.397Z,85.49
2018-06-10T07:08:28.407Z,86.56
2018-06-10T07:09:28.417Z,85.88
2018-06-10T07:10:28.424Z,85.98
2018-06-10T07:11:28.434Z,86.41
2018-06-10T07:12:28.438Z,86.41
2018-06-10T07:13:28.446Z,86.56
2018-06-10T07:14:28.457Z,86.27
2018-06-10T07:15:28.464Z,87.04
2018-06-10T07:16:28.478Z,85.98
2018-06-10T07:17:28.486Z,85.21
2018-06-10T07:18:28.501Z,86.46
2018-06-10T07:19:28.502Z,86.46
2018-06-10T07:20:28.512Z,86.36
2018-06-10T07:21:28.519Z,86.60
2018-06-10T07:22:28.529Z,86.11
2018-06-10T07:23:28.539Z,86.11
2018-06-10T07:24:28.548Z,86.51
2018-06-10T07:25:28.556Z,84.91
2018-06-10T07:26:28.568Z,86.79
2018-06-10T07:27:28.572Z,86.36
2018-06-10T07:28:28.580Z,86.02
2018-06-10T07:29:28.599Z,85.25
2018-06-10T07:30:28.651Z,84.57
2018-06-10T07:31:28.618Z,84.95
2018-06-10T07:32:28.616Z,84.47
2018-06-10T07:33:28.700Z,84.09
2018-06-10T07:34:28.647Z,83.80
2018-06-10T07:35:28.641Z,84.19
2018-06-10T07:36:28.651Z,83.80
2018-06-10T07:37:28.661Z,84.19
2018-06-10T07:38:28.670Z,84.19
2018-06-10T07:39:28.687Z,83.51
2018-06-10T07:40:28.731Z,83.31
2018-06-10T07:41:28.698Z,83.12
2018-06-10T07:42:28.707Z,83.99
2018-06-10T07:43:28.718Z,83.80
2018-06-10T07:44:28.722Z,82.54
2018-06-10T07:45:28.731Z,81.87
2018-06-10T07:46:28.741Z,82.06
2018-06-10T07:47:28.751Z,82.48
2018-06-10T07:48:28.815Z,83.80
2018-06-10T07:49:28.772Z,84.03
2018-06-10T07:50:28.779Z,85.19
2018-06-10T07:51:28.790Z,84.61
2018-06-10T07:52:28.798Z,85.19
2018-06-10T07:53:28.804Z,84.42
2018-06-10T07:54:28.821Z,84.71
2018-06-10T07:55:28.830Z,84.03
2018-06-10T07:56:28.838Z,83.94
2018-06-10T07:57:28.844Z,85.00
2018-06-10T07:58:28.853Z,85.48
2018-06-10T07:59:28.863Z,84.75
2018-06-10T08:00:28.878Z,83.84
2018-06-10T08:01:28.887Z,83.01
2018-06-10T08:02:28.892Z,82.04
2018-06-10T08:03:28.899Z,82.81
2018-06-10T08:04:28.910Z,82.53
2018-06-10T08:05:28.972Z,82.14
2018-06-10T08:06:28.928Z,83.45
2018-06-10T08:07:28.943Z,82.29
2018-06-10T08:08:28.948Z,81.71
2018-06-10T08:09:28.961Z,81.71
2018-06-10T08:10:28.971Z,81.37
2018-06-10T08:11:28.981Z,81.37
2018-06-10T08:12:28.995Z,81.27
2018-06-10T08:13:28.997Z,81.75
2018-06-10T08:14:29.005Z,82.14
2018-06-10T08:15:29.021Z,82.33
2018-06-10T08:16:29.025Z,81.85
2018-06-10T08:17:29.033Z,82.23
2018-06-10T08:18:29.045Z,81.85
2018-06-10T08:19:29.055Z,81.46
2018-06-10T08:20:29.062Z,81.65
2018-06-10T08:21:29.081Z,81.07
2018-06-10T08:22:29.085Z,80.15
2018-06-10T08:23:29.099Z,82.14
2018-06-10T08:24:29.101Z,81.95
2018-06-10T08:25:29.111Z,80.30
2018-06-10T08:26:29.129Z,80.79
2018-06-10T08:27:29.142Z,80.40
2018-06-10T08:28:29.143Z,81.27
2018-06-10T08:29:29.154Z,81.95
2018-06-10T08:30:29.165Z,82.14
2018-06-10T08:31:29.178Z,82.08
2018-06-10T08:32:29.182Z,80.44
2018-06-10T08:33:29.203Z,79.66
2018-06-10T08:34:29.212Z,78.99
2018-06-10T08:35:29.216Z,80.54
2018-06-10T08:36:29.218Z,81.98
2018-06-10T08:37:29.245Z,80.24
2018-06-10T08:38:29.246Z,78.89
2018-06-10T08:39:29.257Z,79.08
2018-06-10T08:40:29.265Z,79.17
2018-06-10T08:41:29.274Z,78.31
2018-06-10T08:42:29.278Z,77.92
2018-06-10T08:43:29.290Z,77.92
2018-06-10T08:44:29.301Z,78.25
2018-06-10T08:45:29.309Z,79.22
2018-06-10T08:46:29.324Z,78.02
2018-06-10T08:47:29.328Z,80.54
2018-06-10T08:48:29.340Z,80.15
2018-06-10T08:49:29.349Z,79.08
2018-06-10T08:50:29.368Z,80.05
2018-06-10T08:51:29.369Z,81.12
2018-06-10T08:52:29.379Z,81.89
2018-06-10T08:53:29.400Z,80.24
2018-06-10T08:54:29.402Z,79.37
2018-06-10T08:55:29.412Z,79.17
2018-06-10T08:56:29.422Z,81.50
2018-06-10T08:57:29.430Z,80.34
2018-06-10T08:58:29.439Z,80.57
2018-06-10T08:59:29.454Z,80.67
2018-06-10T09:00:29.457Z,81.64
2018-06-10T09:01:29.471Z,80.63
2018-06-10T09:02:29.488Z,81.40
2018-06-10T09:03:29.490Z,79.70
2018-06-10T09:04:29.500Z,81.21
2018-06-10T09:05:29.512Z,80.28
2018-06-10T09:06:29.525Z,79.12
2018-06-10T09:07:29.537Z,77.28
2018-06-10T09:08:29.606Z,76.70
2018-06-10T09:09:29.555Z,76.15
2018-06-10T09:10:29.570Z,76.79
2018-06-10T09:11:29.577Z,78.38
2018-06-10T09:12:29.586Z,78.05
2018-06-10T09:13:29.593Z,78.83
2018-06-10T09:14:29.608Z,79.50
2018-06-10T09:15:29.619Z,79.12
2018-06-10T09:16:29.628Z,78.54
2018-06-10T09:17:29.636Z,79.60
2018-06-10T09:18:29.648Z,79.35
2018-06-10T09:19:29.656Z,76.25
2018-06-10T09:20:29.666Z,76.83
2018-06-10T09:21:29.675Z,76.93
2018-06-10T09:22:29.691Z,75.67
2018-06-10T09:23:29.696Z,75.38
2018-06-10T09:24:29.708Z,74.90
2018-06-10T09:25:29.718Z,74.02
2018-06-10T09:26:29.726Z,74.22
2018-06-10T09:27:29.740Z,74.99
2018-06-10T09:28:29.767Z,76.58
2018-06-10T09:29:29.760Z,76.68
2018-06-10T09:30:29.774Z,75.81
2018-06-10T09:31:29.788Z,74.41
2018-06-10T09:32:29.795Z,73.38
2018-06-10T09:33:29.807Z,74.02
2018-06-10T09:34:29.817Z,73.05
2018-06-10T09:35:29.845Z,73.38
2018-06-10T09:36:29.835Z,74.93
2018-06-10T09:37:29.852Z,75.03
2018-06-10T09:38:29.859Z,74.93
2018-06-10T09:39:29.866Z,75.71
2018-06-10T09:40:29.882Z,76.39
2018-06-10T09:41:29.893Z,75.23
2018-06-10T09:42:29.899Z,75.13
2018-06-10T09:43:29.912Z,74.45
2018-06-10T09:44:29.925Z,74.87
2018-06-10T09:45:29.932Z,73.86
2018-06-10T09:46:29.943Z,76.62
2018-06-10T09:47:29.959Z,75.07
2018-06-10T09:48:29.971Z,74.29
2018-06-10T09:49:29.975Z,72.41
2018-06-10T09:50:29.989Z,71.15
2018-06-10T09:51:29.998Z,70.70
2018-06-10T09:52:30.015Z,71.38
2018-06-10T09:53:30.030Z,72.74
2018-06-10T09:54:30.034Z,71.86
2018-06-10T09:55:30.221Z,73.46
2018-06-10T09:56:30.052Z,73.46
2018-06-10T09:57:30.071Z,71.90
2018-06-10T09:58:30.081Z,71.80
2018-06-10T09:59:30.085Z,72.58
2018-06-10T10:00:30.098Z,72.67
2018-06-10T10:01:30.109Z,72.35
2018-06-10T10:02:30.119Z,72.35
2018-06-10T10:03:30.135Z,73.22
2018-06-10T10:04:30.153Z,72.58
2018-06-10T10:05:30.156Z,71.67
2018-06-10T10:06:30.169Z,72.45
2018-06-10T10:07:30.175Z,72.25
2018-06-10T10:08:30.187Z,70.73
2018-06-10T10:09:30.196Z,70.73
2018-06-10T10:10:30.209Z,71.22
2018-06-10T10:11:30.224Z,72.39
2018-06-10T10:12:30.236Z,71.70
2018-06-10T10:13:30.258Z,68.70
2018-06-10T10:14:30.269Z,69.51
2018-06-10T10:15:30.268Z,72.61
2018-06-10T10:16:30.287Z,72.03
2018-06-10T10:17:30.300Z,72.52
2018-06-10T10:18:30.313Z,71.84
2018-06-10T10:19:30.314Z,71.20
2018-06-10T10:20:30.328Z,73.10
2018-06-10T10:21:30.336Z,72.75
2018-06-10T10:22:30.353Z,71.58
2018-06-10T10:23:30.365Z,71.06
2018-06-10T10:24:30.370Z,71.26
2018-06-10T10:25:30.439Z,72.42
2018-06-10T10:26:30.393Z,71.94
2018-06-10T10:27:30.404Z,71.94
2018-06-10T10:28:30.419Z,71.55
2018-06-10T10:29:30.429Z,70.83
2018-06-10T10:30:30.441Z,70.70
2018-06-10T10:31:30.453Z,69.86
2018-06-10T10:32:30.463Z,70.73
2018-06-10T10:33:30.476Z,69.86
2018-06-10T10:34:30.490Z,69.70
2018-06-10T10:35:30.499Z,69.28
2018-06-10T10:36:30.516Z,69.28
2018-06-10T10:37:30.523Z,68.44
2018-06-10T10:38:30.557Z,68.93
2018-06-10T10:39:30.551Z,68.83
2018-06-10T10:40:30.559Z,69.80
2018-06-10T10:41:30.570Z,69.84
2018-06-10T10:42:30.577Z,69.80
2018-06-10T10:43:30.594Z,69.80
2018-06-10T10:44:30.605Z,69.41
2018-06-10T10:45:30.616Z,70.48
2018-06-10T10:46:30.625Z,70.09
2018-06-10T10:47:30.639Z,68.15
2018-06-10T10:48:30.658Z,68.05
2018-06-10T10:49:30.659Z,66.30
2018-06-10T10:50:30.678Z,66.24
2018-06-10T10:51:30.687Z,68.48
2018-06-10T10:52:30.712Z,69.45
2018-06-10T10:53:30.717Z,70.71
2018-06-10T10:54:30.717Z,70.26
2018-06-10T10:55:30.735Z,67.60
2018-06-10T10:56:30.742Z,67.02
2018-06-10T10:57:30.756Z,67.89
2018-06-10T10:58:30.768Z,69.22
2018-06-10T10:59:30.782Z,69.84
2018-06-10T11:00:30.794Z,69.25
2018-06-10T11:01:30.803Z,69.32
2018-06-10T11:02:30.818Z,68.15
2018-06-10T11:03:30.833Z,68.15
2018-06-10T11:04:30.838Z,68.28
2018-06-10T11:05:30.849Z,69.25
2018-06-10T11:06:30.862Z,69.25
2018-06-10T11:07:30.877Z,68.08
2018-06-10T11:08:30.892Z,68.99
2018-06-10T11:09:30.904Z,66.86
2018-06-10T11:10:30.910Z,65.50
2018-06-10T11:11:30.921Z,65.98
2018-06-10T11:12:30.935Z,65.11
2018-06-10T11:13:30.955Z,64.14
2018-06-10T11:14:30.957Z,62.19
2018-06-10T11:15:30.968Z,62.00
2018-06-10T11:16:30.984Z,62.00
2018-06-10T11:17:30.993Z,66.08
2018-06-10T11:18:31.010Z,66.56
2018-06-10T11:19:31.023Z,65.59
2018-06-10T11:20:31.031Z,64.04
2018-06-10T11:21:31.049Z,65.30
2018-06-10T11:22:31.054Z,64.23
2018-06-10T11:23:31.081Z,63.10
2018-06-10T11:24:31.082Z,66.47
2018-06-10T11:25:31.091Z,67.93
2018-06-10T11:26:31.103Z,66.17
2018-06-10T11:27:31.119Z,65.79
2018-06-10T11:28:31.130Z,65.89
2018-06-10T11:29:31.138Z,64.46
2018-06-10T11:30:31.154Z,66.11
2018-06-10T11:31:31.162Z,66.50
2018-06-10T11:32:31.182Z,65.63
2018-06-10T11:33:31.189Z,65.95
2018-06-10T11:34:31.211Z,63.97
2018-06-10T11:35:31.219Z,63.49
2018-06-10T11:36:31.228Z,63.59
2018-06-10T11:37:31.243Z,63.00
2018-06-10T11:38:31.249Z,63.59
2018-06-10T11:39:31.268Z,62.03
2018-06-10T11:40:31.277Z,62.51
2018-06-10T11:41:31.289Z,63.68
2018-06-10T11:42:31.450Z,62.41
2018-06-10T11:43:31.314Z,63.55
2018-06-10T11:44:31.327Z,65.11
2018-06-10T11:45:31.338Z,63.78
2018-06-10T11:46:31.350Z,63.59
2018-06-10T11:47:31.364Z,62.23
2018-06-10T11:48:31.375Z,63.03
2018-06-10T11:49:31.385Z,63.71
2018-06-10T11:50:31.442Z,61.74
2018-06-10T11:51:31.413Z,62.90
2018-06-10T11:52:31.424Z,63.59
2018-06-10T11:53:31.441Z,61.74
2018-06-10T11:54:31.451Z,60.31
2018-06-10T11:55:31.462Z,60.11
2018-06-10T11:56:31.474Z,59.23
2018-06-10T11:57:31.490Z,64.20
2018-06-10T11:58:31.502Z,62.35
2018-06-10T11:59:31.512Z,61.57
2018-06-10T12:00:31.524Z,61.77
2018-06-10T12:01:31.540Z,60.50
2018-06-10T12:02:31.550Z,60.63
2018-06-10T12:03:31.566Z,62.35
2018-06-10T12:04:31.573Z,62.54
2018-06-10T12:05:31.587Z,61.18
2018-06-10T12:06:31.602Z,62.45
2018-06-10T12:07:31.613Z,62.35
2018-06-10T12:08:31.636Z,61.64
2018-06-10T12:09:31.638Z,61.67
2018-06-10T12:10:31.704Z,61.57
2018-06-10T12:11:31.664Z,61.28
2018-06-10T12:12:31.675Z,61.67
2018-06-10T12:13:31.690Z,62.64
2018-06-10T12:14:31.702Z,61.80
2018-06-10T12:15:31.714Z,61.64
2018-06-10T12:16:31.760Z,63.00
2018-06-10T12:17:31.742Z,64.17
2018-06-10T12:18:31.751Z,63.59
2018-06-10T12:19:31.767Z,63.81
2018-06-10T12:20:31.781Z,63.71
2018-06-10T12:21:31.792Z,62.93
2018-06-10T12:22:31.856Z,62.03
2018-06-10T12:23:31.817Z,60.47
2018-06-10T12:24:31.830Z,60.79
2018-06-10T12:25:31.842Z,61.87
2018-06-10T12:26:31.857Z,61.47
2018-06-10T12:27:31.868Z,62.51
2018-06-10T12:28:31.878Z,64.07
2018-06-10T12:29:31.895Z,60.60
2018-06-10T12:30:31.905Z,57.97
2018-06-10T12:31:31.922Z,58.65
2018-06-10T12:32:31.930Z,59.07
2018-06-10T12:33:31.948Z,58.87
2018-06-10T12:34:31.968Z,59.17
2018-06-10T12:35:31.978Z,60.53
2018-06-10T12:36:31.983Z,59.92
2018-06-10T12:37:31.999Z,59.23
2018-06-10T12:38:32.009Z,61.57
2018-06-10T12:39:32.023Z,61.87
2018-06-10T12:40:32.036Z,62.45
2018-06-10T12:41:32.125Z,62.38
2018-06-10T12:42:32.071Z,61.60
2018-06-10T12:43:32.099Z,62.87
2018-06-10T12:44:32.084Z,61.21
2018-06-10T12:45:32.098Z,59.95
2018-06-10T12:46:32.113Z,59.72
2018-06-10T12:47:32.127Z,62.09
2018-06-10T12:48:32.138Z,61.90
2018-06-10T12:49:32.153Z,60.44
2018-06-10T12:50:32.170Z,60.92
2018-06-10T12:51:32.178Z,61.51
2018-06-10T12:52:32.189Z,61.02